sensor_id;sensor_type;location;lat;lon;timestamp;P1;durP1;ratioP1;P2;durP2;ratioP2
14121;SDS011;7139;48.114;11.442;2023-09-30T00:00:09;22.00;;;11.67;;
14121;SDS011;7139;48.114;11.442;2023-09-30T00:02:36;22.53;;;12.40;;
14121;SDS011;7139;48.114;11.442;2023-09-30T00:05:04;20.23;;;11.80;;
14121;SDS011;7139;48.114;11.442;2023-09-30T00:07:31;25.40;;;13.20;;
14121;SDS011;7139;48.114;11.442;2023-09-30T00:09:59;20.83;;;11.73;;
14121;SDS011;7139;48.114;11.442;2023-09-30T00:12:26;20.37;;;12.27;;
14121;SDS011;7139;48.114;11.442;2023-09-30T00:14:53;21.90;;;12.50;;
14121;SDS011;7139;48.114;11.442;2023-09-30T00:17:20;22.07;;;12.53;;
14121;SDS011;7139;48.114;11.442;2023-09-30T00:19:47;22.20;;;12.77;;
14121;SDS011;7139;48.114;11.442;2023-09-30T00:22:13;22.43;;;12.67;;
14121;SDS011;7139;48.114;11.442;2023-09-30T00:24:40;20.10;;;12.27;;
14121;SDS011;7139;48.114;11.442;2023-09-30T00:27:08;21.23;;;12.23;;
14121;SDS011;7139;48.114;11.442;2023-09-30T00:29:35;21.47;;;12.40;;
14121;SDS011;7139;48.114;11.442;2023-09-30T00:32:02;22.80;;;12.57;;
14121;SDS011;7139;48.114;11.442;2023-09-30T00:34:31;21.03;;;12.40;;
14121;SDS011;7139;48.114;11.442;2023-09-30T00:36:59;23.50;;;13.23;;
14121;SDS011;7139;48.114;11.442;2023-09-30T00:39:25;21.93;;;12.97;;
14121;SDS011;7139;48.114;11.442;2023-09-30T00:41:55;25.53;;;13.50;;
14121;SDS011;7139;48.114;11.442;2023-09-30T00:44:24;23.60;;;13.07;;
14121;SDS011;7139;48.114;11.442;2023-09-30T00:46:52;22.40;;;13.23;;
14121;SDS011;7139;48.114;11.442;2023-09-30T00:49:20;23.73;;;13.13;;
14121;SDS011;7139;48.114;11.442;2023-09-30T00:51:47;22.00;;;12.57;;
14121;SDS011;7139;48.114;11.442;2023-09-30T00:54:15;24.37;;;13.80;;
14121;SDS011;7139;48.114;11.442;2023-09-30T00:56:43;23.03;;;13.03;;
14121;SDS011;7139;48.114;11.442;2023-09-30T00:59:11;24.03;;;13.37;;
14121;SDS011;7139;48.114;11.442;2023-09-30T01:01:40;23.53;;;13.27;;
14121;SDS011;7139;48.114;11.442;2023-09-30T01:04:08;23.83;;;13.23;;
14121;SDS011;7139;48.114;11.442;2023-09-30T01:06:35;23.67;;;13.63;;
14121;SDS011;7139;48.114;11.442;2023-09-30T01:09:02;23.67;;;13.23;;
14121;SDS011;7139;48.114;11.442;2023-09-30T01:11:29;23.77;;;13.43;;
14121;SDS011;7139;48.114;11.442;2023-09-30T01:13:56;21.67;;;13.00;;
14121;SDS011;7139;48.114;11.442;2023-09-30T01:16:24;23.97;;;13.50;;
14121;SDS011;7139;48.114;11.442;2023-09-30T01:18:52;23.73;;;14.07;;
14121;SDS011;7139;48.114;11.442;2023-09-30T01:21:18;23.17;;;13.77;;
14121;SDS011;7139;48.114;11.442;2023-09-30T01:23:48;22.93;;;13.53;;
14121;SDS011;7139;48.114;11.442;2023-09-30T01:26:14;25.20;;;13.67;;
14121;SDS011;7139;48.114;11.442;2023-09-30T01:28:41;23.90;;;13.57;;
14121;SDS011;7139;48.114;11.442;2023-09-30T01:31:08;24.57;;;13.87;;
14121;SDS011;7139;48.114;11.442;2023-09-30T01:33:35;22.40;;;13.10;;
14121;SDS011;7139;48.114;11.442;2023-09-30T01:36:02;22.90;;;13.20;;
14121;SDS011;7139;48.114;11.442;2023-09-30T01:38:29;22.43;;;13.23;;
14121;SDS011;7139;48.114;11.442;2023-09-30T01:40:57;23.80;;;12.77;;
14121;SDS011;7139;48.114;11.442;2023-09-30T01:43:24;23.03;;;13.03;;
14121;SDS011;7139;48.114;11.442;2023-09-30T01:45:51;26.07;;;13.60;;
14121;SDS011;7139;48.114;11.442;2023-09-30T01:48:18;23.70;;;13.27;;
14121;SDS011;7139;48.114;11.442;2023-09-30T01:50:44;22.37;;;13.43;;
14121;SDS011;7139;48.114;11.442;2023-09-30T01:53:12;24.87;;;13.37;;
14121;SDS011;7139;48.114;11.442;2023-09-30T01:55:39;21.63;;;13.67;;
14121;SDS011;7139;48.114;11.442;2023-09-30T01:58:07;21.77;;;12.83;;
14121;SDS011;7139;48.114;11.442;2023-09-30T02:00:36;20.63;;;12.47;;
14121;SDS011;7139;48.114;11.442;2023-09-30T02:03:03;23.23;;;12.57;;
14121;SDS011;7139;48.114;11.442;2023-09-30T02:05:30;23.17;;;13.50;;
14121;SDS011;7139;48.114;11.442;2023-09-30T02:07:56;22.57;;;12.87;;
14121;SDS011;7139;48.114;11.442;2023-09-30T02:10:23;21.40;;;13.60;;
14121;SDS011;7139;48.114;11.442;2023-09-30T02:12:50;24.00;;;13.57;;
14121;SDS011;7139;48.114;11.442;2023-09-30T02:15:18;23.20;;;12.93;;
14121;SDS011;7139;48.114;11.442;2023-09-30T02:17:45;23.57;;;12.77;;
14121;SDS011;7139;48.114;11.442;2023-09-30T02:20:13;22.30;;;13.13;;
14121;SDS011;7139;48.114;11.442;2023-09-30T02:22:43;21.03;;;13.07;;
14121;SDS011;7139;48.114;11.442;2023-09-30T02:25:11;21.53;;;12.70;;
14121;SDS011;7139;48.114;11.442;2023-09-30T02:27:39;24.20;;;12.97;;
14121;SDS011;7139;48.114;11.442;2023-09-30T02:30:07;21.47;;;13.20;;
14121;SDS011;7139;48.114;11.442;2023-09-30T02:32:36;22.60;;;13.10;;
14121;SDS011;7139;48.114;11.442;2023-09-30T02:35:04;23.37;;;13.53;;
14121;SDS011;7139;48.114;11.442;2023-09-30T02:37:31;24.50;;;13.43;;
14121;SDS011;7139;48.114;11.442;2023-09-30T02:40:00;24.53;;;13.77;;
14121;SDS011;7139;48.114;11.442;2023-09-30T02:42:29;24.90;;;13.47;;
14121;SDS011;7139;48.114;11.442;2023-09-30T02:44:55;22.70;;;13.17;;
14121;SDS011;7139;48.114;11.442;2023-09-30T02:47:22;20.07;;;11.83;;
14121;SDS011;7139;48.114;11.442;2023-09-30T02:49:50;20.40;;;11.77;;
14121;SDS011;7139;48.114;11.442;2023-09-30T02:52:17;23.10;;;12.77;;
14121;SDS011;7139;48.114;11.442;2023-09-30T02:54:43;21.77;;;12.10;;
14121;SDS011;7139;48.114;11.442;2023-09-30T02:57:10;21.63;;;12.63;;
14121;SDS011;7139;48.114;11.442;2023-09-30T02:59:37;21.67;;;12.07;;
14121;SDS011;7139;48.114;11.442;2023-09-30T03:02:03;24.37;;;12.90;;
14121;SDS011;7139;48.114;11.442;2023-09-30T03:04:30;23.63;;;12.77;;
14121;SDS011;7139;48.114;11.442;2023-09-30T03:06:59;20.23;;;11.50;;
14121;SDS011;7139;48.114;11.442;2023-09-30T03:09:25;22.40;;;12.07;;
14121;SDS011;7139;48.114;11.442;2023-09-30T03:11:52;21.90;;;11.90;;
14121;SDS011;7139;48.114;11.442;2023-09-30T03:14:21;21.90;;;12.23;;
14121;SDS011;7139;48.114;11.442;2023-09-30T03:16:47;20.77;;;11.40;;
14121;SDS011;7139;48.114;11.442;2023-09-30T03:19:14;21.17;;;12.13;;
14121;SDS011;7139;48.114;11.442;2023-09-30T03:21:41;21.03;;;11.87;;
14121;SDS011;7139;48.114;11.442;2023-09-30T03:24:09;19.17;;;11.77;;
14121;SDS011;7139;48.114;11.442;2023-09-30T03:26:37;19.60;;;11.67;;
14121;SDS011;7139;48.114;11.442;2023-09-30T03:29:06;22.07;;;12.03;;
14121;SDS011;7139;48.114;11.442;2023-09-30T03:31:34;21.57;;;11.43;;
14121;SDS011;7139;48.114;11.442;2023-09-30T03:34:00;19.73;;;11.73;;
14121;SDS011;7139;48.114;11.442;2023-09-30T03:36:29;19.23;;;11.23;;
14121;SDS011;7139;48.114;11.442;2023-09-30T03:38:56;18.93;;;10.80;;
14121;SDS011;7139;48.114;11.442;2023-09-30T03:41:32;19.47;;;10.87;;
14121;SDS011;7139;48.114;11.442;2023-09-30T03:44:00;19.67;;;11.57;;
14121;SDS011;7139;48.114;11.442;2023-09-30T03:46:27;23.00;;;12.53;;
14121;SDS011;7139;48.114;11.442;2023-09-30T03:48:55;18.97;;;11.43;;
14121;SDS011;7139;48.114;11.442;2023-09-30T03:51:21;19.47;;;11.67;;
14121;SDS011;7139;48.114;11.442;2023-09-30T03:53:50;22.67;;;11.97;;
14121;SDS011;7139;48.114;11.442;2023-09-30T03:56:17;21.57;;;11.53;;
14121;SDS011;7139;48.114;11.442;2023-09-30T03:58:45;22.00;;;11.30;;
14121;SDS011;7139;48.114;11.442;2023-09-30T04:01:13;20.63;;;11.30;;
14121;SDS011;7139;48.114;11.442;2023-09-30T04:03:40;21.50;;;11.40;;
14121;SDS011;7139;48.114;11.442;2023-09-30T04:06:08;17.93;;;10.67;;
14121;SDS011;7139;48.114;11.442;2023-09-30T04:08:35;19.30;;;10.50;;
14121;SDS011;7139;48.114;11.442;2023-09-30T04:11:03;20.57;;;10.93;;
14121;SDS011;7139;48.114;11.442;2023-09-30T04:13:30;18.33;;;10.63;;
14121;SDS011;7139;48.114;11.442;2023-09-30T04:15:59;18.83;;;10.67;;
14121;SDS011;7139;48.114;11.442;2023-09-30T04:18:26;19.67;;;10.60;;
14121;SDS011;7139;48.114;11.442;2023-09-30T04:20:52;18.80;;;10.40;;
14121;SDS011;7139;48.114;11.442;2023-09-30T04:23:19;17.43;;;10.87;;
14121;SDS011;7139;48.114;11.442;2023-09-30T04:25:47;20.50;;;10.43;;
14121;SDS011;7139;48.114;11.442;2023-09-30T04:28:14;17.40;;;10.00;;
14121;SDS011;7139;48.114;11.442;2023-09-30T04:30:45;17.70;;;10.47;;
14121;SDS011;7139;48.114;11.442;2023-09-30T04:33:14;17.37;;;9.80;;
14121;SDS011;7139;48.114;11.442;2023-09-30T04:35:42;20.33;;;10.30;;
14121;SDS011;7139;48.114;11.442;2023-09-30T04:38:09;20.50;;;10.67;;
14121;SDS011;7139;48.114;11.442;2023-09-30T04:40:36;18.73;;;10.20;;
14121;SDS011;7139;48.114;11.442;2023-09-30T04:43:03;18.47;;;10.23;;
14121;SDS011;7139;48.114;11.442;2023-09-30T04:45:30;19.73;;;10.23;;
14121;SDS011;7139;48.114;11.442;2023-09-30T04:47:58;17.27;;;10.17;;
14121;SDS011;7139;48.114;11.442;2023-09-30T04:50:27;17.53;;;10.23;;
14121;SDS011;7139;48.114;11.442;2023-09-30T04:52:55;17.90;;;9.40;;
14121;SDS011;7139;48.114;11.442;2023-09-30T04:55:23;18.33;;;10.00;;
14121;SDS011;7139;48.114;11.442;2023-09-30T04:57:51;16.93;;;8.87;;
14121;SDS011;7139;48.114;11.442;2023-09-30T05:00:18;18.03;;;10.00;;
14121;SDS011;7139;48.114;11.442;2023-09-30T05:02:49;15.70;;;9.63;;
14121;SDS011;7139;48.114;11.442;2023-09-30T05:05:17;18.27;;;10.57;;
14121;SDS011;7139;48.114;11.442;2023-09-30T05:07:45;18.43;;;10.60;;
14121;SDS011;7139;48.114;11.442;2023-09-30T05:10:12;19.37;;;9.40;;
14121;SDS011;7139;48.114;11.442;2023-09-30T05:12:41;16.33;;;10.13;;
14121;SDS011;7139;48.114;11.442;2023-09-30T05:15:10;17.07;;;9.70;;
14121;SDS011;7139;48.114;11.442;2023-09-30T05:17:37;19.40;;;10.67;;
14121;SDS011;7139;48.114;11.442;2023-09-30T05:20:05;18.13;;;10.53;;
14121;SDS011;7139;48.114;11.442;2023-09-30T05:22:32;15.93;;;9.27;;
14121;SDS011;7139;48.114;11.442;2023-09-30T05:25:00;19.23;;;10.60;;
14121;SDS011;7139;48.114;11.442;2023-09-30T05:27:27;17.53;;;9.53;;
14121;SDS011;7139;48.114;11.442;2023-09-30T05:29:54;18.27;;;10.23;;
14121;SDS011;7139;48.114;11.442;2023-09-30T05:32:21;15.97;;;9.73;;
14121;SDS011;7139;48.114;11.442;2023-09-30T05:34:48;16.50;;;10.27;;
14121;SDS011;7139;48.114;11.442;2023-09-30T05:37:15;16.80;;;9.60;;
14121;SDS011;7139;48.114;11.442;2023-09-30T05:39:42;19.13;;;10.10;;
14121;SDS011;7139;48.114;11.442;2023-09-30T05:42:11;18.83;;;10.73;;
14121;SDS011;7139;48.114;11.442;2023-09-30T05:44:37;17.97;;;10.20;;
14121;SDS011;7139;48.114;11.442;2023-09-30T05:47:04;16.03;;;9.67;;
14121;SDS011;7139;48.114;11.442;2023-09-30T05:49:31;17.83;;;10.30;;
14121;SDS011;7139;48.114;11.442;2023-09-30T05:51:58;15.70;;;9.23;;
14121;SDS011;7139;48.114;11.442;2023-09-30T05:54:25;19.60;;;10.43;;
14121;SDS011;7139;48.114;11.442;2023-09-30T05:56:51;19.53;;;9.93;;
14121;SDS011;7139;48.114;11.442;2023-09-30T05:59:19;14.30;;;9.40;;
14121;SDS011;7139;48.114;11.442;2023-09-30T06:01:46;20.57;;;9.60;;
14121;SDS011;7139;48.114;11.442;2023-09-30T06:04:13;16.53;;;9.33;;
14121;SDS011;7139;48.114;11.442;2023-09-30T06:06:40;19.23;;;9.87;;
14121;SDS011;7139;48.114;11.442;2023-09-30T06:09:09;16.37;;;9.17;;
14121;SDS011;7139;48.114;11.442;2023-09-30T06:11:36;16.63;;;9.77;;
14121;SDS011;7139;48.114;11.442;2023-09-30T06:14:03;18.77;;;9.97;;
14121;SDS011;7139;48.114;11.442;2023-09-30T06:16:32;18.30;;;9.93;;
14121;SDS011;7139;48.114;11.442;2023-09-30T06:19:00;17.97;;;9.57;;
14121;SDS011;7139;48.114;11.442;2023-09-30T06:21:28;15.97;;;8.30;;
14121;SDS011;7139;48.114;11.442;2023-09-30T06:23:55;14.83;;;8.23;;
14121;SDS011;7139;48.114;11.442;2023-09-30T06:26:21;13.53;;;8.03;;
14121;SDS011;7139;48.114;11.442;2023-09-30T06:28:51;15.70;;;8.47;;
14121;SDS011;7139;48.114;11.442;2023-09-30T06:31:19;15.37;;;8.13;;
14121;SDS011;7139;48.114;11.442;2023-09-30T06:33:47;13.77;;;7.87;;
14121;SDS011;7139;48.114;11.442;2023-09-30T06:36:14;16.17;;;8.07;;
14121;SDS011;7139;48.114;11.442;2023-09-30T06:38:41;15.83;;;8.23;;
14121;SDS011;7139;48.114;11.442;2023-09-30T06:41:14;15.20;;;8.70;;
14121;SDS011;7139;48.114;11.442;2023-09-30T06:43:41;13.30;;;8.30;;
14121;SDS011;7139;48.114;11.442;2023-09-30T06:46:08;16.20;;;8.37;;
14121;SDS011;7139;48.114;11.442;2023-09-30T06:48:35;14.03;;;8.47;;
14121;SDS011;7139;48.114;11.442;2023-09-30T06:51:06;14.03;;;8.23;;
14121;SDS011;7139;48.114;11.442;2023-09-30T06:53:33;13.97;;;8.20;;
14121;SDS011;7139;48.114;11.442;2023-09-30T06:56:03;14.43;;;8.27;;
14121;SDS011;7139;48.114;11.442;2023-09-30T06:58:31;13.00;;;7.70;;
14121;SDS011;7139;48.114;11.442;2023-09-30T07:00:58;14.40;;;7.83;;
14121;SDS011;7139;48.114;11.442;2023-09-30T07:03:25;12.57;;;7.43;;
14121;SDS011;7139;48.114;11.442;2023-09-30T07:05:51;13.23;;;7.70;;
14121;SDS011;7139;48.114;11.442;2023-09-30T07:08:20;14.17;;;7.53;;
14121;SDS011;7139;48.114;11.442;2023-09-30T07:10:47;11.27;;;7.50;;
14121;SDS011;7139;48.114;11.442;2023-09-30T07:13:15;12.27;;;7.77;;
14121;SDS011;7139;48.114;11.442;2023-09-30T07:15:43;12.77;;;6.80;;
14121;SDS011;7139;48.114;11.442;2023-09-30T07:18:10;13.10;;;7.40;;
14121;SDS011;7139;48.114;11.442;2023-09-30T07:20:37;12.37;;;7.57;;
14121;SDS011;7139;48.114;11.442;2023-09-30T07:23:04;12.60;;;6.53;;
14121;SDS011;7139;48.114;11.442;2023-09-30T07:25:33;12.60;;;7.50;;
14121;SDS011;7139;48.114;11.442;2023-09-30T07:27:59;11.20;;;6.67;;
14121;SDS011;7139;48.114;11.442;2023-09-30T07:30:27;11.83;;;7.23;;
14121;SDS011;7139;48.114;11.442;2023-09-30T07:32:53;11.77;;;7.00;;
14121;SDS011;7139;48.114;11.442;2023-09-30T07:35:20;10.30;;;6.40;;
14121;SDS011;7139;48.114;11.442;2023-09-30T07:37:47;11.73;;;6.53;;
14121;SDS011;7139;48.114;11.442;2023-09-30T07:40:17;11.90;;;6.93;;
14121;SDS011;7139;48.114;11.442;2023-09-30T07:42:45;13.50;;;6.70;;
14121;SDS011;7139;48.114;11.442;2023-09-30T07:45:11;14.00;;;7.53;;
14121;SDS011;7139;48.114;11.442;2023-09-30T07:47:41;11.40;;;6.80;;
14121;SDS011;7139;48.114;11.442;2023-09-30T07:50:09;12.67;;;6.90;;
14121;SDS011;7139;48.114;11.442;2023-09-30T07:52:37;11.43;;;6.60;;
14121;SDS011;7139;48.114;11.442;2023-09-30T07:55:05;13.33;;;7.27;;
14121;SDS011;7139;48.114;11.442;2023-09-30T07:57:33;13.43;;;7.07;;
14121;SDS011;7139;48.114;11.442;2023-09-30T08:00:01;10.07;;;6.13;;
14121;SDS011;7139;48.114;11.442;2023-09-30T08:02:32;10.90;;;6.33;;
14121;SDS011;7139;48.114;11.442;2023-09-30T08:04:59;9.67;;;6.20;;
14121;SDS011;7139;48.114;11.442;2023-09-30T08:07:26;10.47;;;6.50;;
14121;SDS011;7139;48.114;11.442;2023-09-30T08:09:53;9.83;;;6.37;;
14121;SDS011;7139;48.114;11.442;2023-09-30T08:12:19;10.37;;;6.17;;
14121;SDS011;7139;48.114;11.442;2023-09-30T08:14:46;10.63;;;5.97;;
14121;SDS011;7139;48.114;11.442;2023-09-30T08:17:15;10.97;;;5.67;;
14121;SDS011;7139;48.114;11.442;2023-09-30T08:19:42;11.63;;;6.10;;
14121;SDS011;7139;48.114;11.442;2023-09-30T08:22:09;10.50;;;6.10;;
14121;SDS011;7139;48.114;11.442;2023-09-30T08:24:36;10.50;;;6.17;;
14121;SDS011;7139;48.114;11.442;2023-09-30T08:27:03;10.00;;;5.70;;
14121;SDS011;7139;48.114;11.442;2023-09-30T08:29:30;9.93;;;5.97;;
14121;SDS011;7139;48.114;11.442;2023-09-30T08:32:01;9.57;;;6.10;;
14121;SDS011;7139;48.114;11.442;2023-09-30T08:34:29;11.67;;;6.13;;
14121;SDS011;7139;48.114;11.442;2023-09-30T08:36:57;12.10;;;6.50;;
14121;SDS011;7139;48.114;11.442;2023-09-30T08:39:24;9.70;;;6.03;;
14121;SDS011;7139;48.114;11.442;2023-09-30T08:41:50;10.87;;;6.87;;
14121;SDS011;7139;48.114;11.442;2023-09-30T08:44:18;12.17;;;6.57;;
14121;SDS011;7139;48.114;11.442;2023-09-30T08:46:45;9.27;;;6.37;;
14121;SDS011;7139;48.114;11.442;2023-09-30T08:49:13;11.77;;;6.80;;
14121;SDS011;7139;48.114;11.442;2023-09-30T08:51:43;10.10;;;6.40;;
14121;SDS011;7139;48.114;11.442;2023-09-30T08:54:10;11.20;;;6.67;;
14121;SDS011;7139;48.114;11.442;2023-09-30T08:56:37;9.87;;;6.23;;
14121;SDS011;7139;48.114;11.442;2023-09-30T08:59:11;10.27;;;6.50;;
14121;SDS011;7139;48.114;11.442;2023-09-30T09:01:37;11.37;;;6.60;;
14121;SDS011;7139;48.114;11.442;2023-09-30T09:04:06;9.87;;;6.30;;
14121;SDS011;7139;48.114;11.442;2023-09-30T09:06:33;9.93;;;6.00;;
14121;SDS011;7139;48.114;11.442;2023-09-30T09:09:14;11.20;;;7.30;;
14121;SDS011;7139;48.114;11.442;2023-09-30T09:11:42;10.53;;;6.50;;
14121;SDS011;7139;48.114;11.442;2023-09-30T09:14:09;9.90;;;6.20;;
14121;SDS011;7139;48.114;11.442;2023-09-30T09:16:36;10.93;;;6.47;;
14121;SDS011;7139;48.114;11.442;2023-09-30T09:19:12;10.37;;;6.23;;
14121;SDS011;7139;48.114;11.442;2023-09-30T09:21:45;11.13;;;6.73;;
14121;SDS011;7139;48.114;11.442;2023-09-30T09:24:27;10.83;;;6.60;;
14121;SDS011;7139;48.114;11.442;2023-09-30T09:27:03;11.13;;;6.77;;
14121;SDS011;7139;48.114;11.442;2023-09-30T09:29:31;10.40;;;6.47;;
14121;SDS011;7139;48.114;11.442;2023-09-30T09:32:06;13.30;;;6.83;;
14121;SDS011;7139;48.114;11.442;2023-09-30T09:34:34;11.17;;;7.20;;
14121;SDS011;7139;48.114;11.442;2023-09-30T09:37:05;14.07;;;7.43;;
14121;SDS011;7139;48.114;11.442;2023-09-30T09:39:41;10.67;;;6.87;;
14121;SDS011;7139;48.114;11.442;2023-09-30T09:42:23;10.13;;;5.87;;
14121;SDS011;7139;48.114;11.442;2023-09-30T09:44:51;10.73;;;6.50;;
14121;SDS011;7139;48.114;11.442;2023-09-30T09:47:20;11.27;;;6.73;;
14121;SDS011;7139;48.114;11.442;2023-09-30T09:49:48;10.57;;;6.67;;
14121;SDS011;7139;48.114;11.442;2023-09-30T09:52:16;11.47;;;6.57;;
14121;SDS011;7139;48.114;11.442;2023-09-30T09:54:45;11.67;;;6.80;;
14121;SDS011;7139;48.114;11.442;2023-09-30T09:57:12;11.43;;;6.77;;
14121;SDS011;7139;48.114;11.442;2023-09-30T09:59:42;13.27;;;6.87;;
14121;SDS011;7139;48.114;11.442;2023-09-30T10:02:10;13.17;;;7.17;;
14121;SDS011;7139;48.114;11.442;2023-09-30T10:04:39;12.17;;;6.57;;
14121;SDS011;7139;48.114;11.442;2023-09-30T10:07:07;11.57;;;7.07;;
14121;SDS011;7139;48.114;11.442;2023-09-30T10:09:39;11.97;;;7.30;;
14121;SDS011;7139;48.114;11.442;2023-09-30T10:12:12;11.53;;;6.77;;
14121;SDS011;7139;48.114;11.442;2023-09-30T10:14:40;11.43;;;6.63;;
14121;SDS011;7139;48.114;11.442;2023-09-30T10:17:07;11.20;;;6.47;;
14121;SDS011;7139;48.114;11.442;2023-09-30T10:19:34;12.83;;;6.90;;
14121;SDS011;7139;48.114;11.442;2023-09-30T10:22:19;11.40;;;7.13;;
14121;SDS011;7139;48.114;11.442;2023-09-30T10:24:47;10.83;;;6.60;;
14121;SDS011;7139;48.114;11.442;2023-09-30T10:27:31;11.43;;;6.90;;
14121;SDS011;7139;48.114;11.442;2023-09-30T10:30:06;11.73;;;6.30;;
14121;SDS011;7139;48.114;11.442;2023-09-30T10:35:46;10.00;;;6.27;;
14121;SDS011;7139;48.114;11.442;2023-09-30T10:41:03;10.93;;;6.07;;
14121;SDS011;7139;48.114;11.442;2023-09-30T10:43:31;10.80;;;6.10;;
14121;SDS011;7139;48.114;11.442;2023-09-30T10:46:00;9.57;;;5.80;;
14121;SDS011;7139;48.114;11.442;2023-09-30T10:48:37;9.13;;;6.27;;
14121;SDS011;7139;48.114;11.442;2023-09-30T10:51:12;10.20;;;6.67;;
14121;SDS011;7139;48.114;11.442;2023-09-30T10:53:45;10.50;;;6.17;;
14121;SDS011;7139;48.114;11.442;2023-09-30T10:56:13;9.67;;;6.73;;
14121;SDS011;7139;48.114;11.442;2023-09-30T10:58:43;10.03;;;5.90;;
14121;SDS011;7139;48.114;11.442;2023-09-30T11:01:11;10.10;;;6.43;;
14121;SDS011;7139;48.114;11.442;2023-09-30T11:03:39;10.67;;;6.30;;
14121;SDS011;7139;48.114;11.442;2023-09-30T11:06:06;10.63;;;7.13;;
14121;SDS011;7139;48.114;11.442;2023-09-30T11:08:34;13.10;;;7.83;;
14121;SDS011;7139;48.114;11.442;2023-09-30T11:11:02;12.10;;;6.97;;
14121;SDS011;7139;48.114;11.442;2023-09-30T11:13:33;7.77;;;5.47;;
14121;SDS011;7139;48.114;11.442;2023-09-30T11:16:02;10.87;;;6.20;;
14121;SDS011;7139;48.114;11.442;2023-09-30T11:18:30;10.07;;;6.30;;
14121;SDS011;7139;48.114;11.442;2023-09-30T11:21:04;9.40;;;6.23;;
14121;SDS011;7139;48.114;11.442;2023-09-30T11:23:32;10.53;;;6.63;;
14121;SDS011;7139;48.114;11.442;2023-09-30T11:25:59;11.47;;;6.20;;
14121;SDS011;7139;48.114;11.442;2023-09-30T11:28:34;9.37;;;6.20;;
14121;SDS011;7139;48.114;11.442;2023-09-30T11:31:03;12.00;;;6.70;;
14121;SDS011;7139;48.114;11.442;2023-09-30T11:33:31;11.73;;;7.07;;
14121;SDS011;7139;48.114;11.442;2023-09-30T11:36:00;9.93;;;6.80;;
14121;SDS011;7139;48.114;11.442;2023-09-30T11:38:29;13.07;;;7.70;;
14121;SDS011;7139;48.114;11.442;2023-09-30T11:41:00;12.23;;;7.77;;
14121;SDS011;7139;48.114;11.442;2023-09-30T11:43:30;12.40;;;7.80;;
14121;SDS011;7139;48.114;11.442;2023-09-30T11:46:05;12.37;;;7.73;;
14121;SDS011;7139;48.114;11.442;2023-09-30T11:48:33;13.73;;;8.20;;
14121;SDS011;7139;48.114;11.442;2023-09-30T11:51:02;11.67;;;7.50;;
14121;SDS011;7139;48.114;11.442;2023-09-30T11:53:29;13.37;;;7.10;;
14121;SDS011;7139;48.114;11.442;2023-09-30T11:55:56;13.10;;;7.33;;
14121;SDS011;7139;48.114;11.442;2023-09-30T11:58:23;12.63;;;7.13;;
14121;SDS011;7139;48.114;11.442;2023-09-30T12:00:53;11.63;;;6.93;;
14121;SDS011;7139;48.114;11.442;2023-09-30T12:03:21;11.17;;;6.93;;
14121;SDS011;7139;48.114;11.442;2023-09-30T12:05:48;12.80;;;7.80;;
14121;SDS011;7139;48.114;11.442;2023-09-30T12:08:16;13.83;;;8.67;;
14121;SDS011;7139;48.114;11.442;2023-09-30T12:10:44;12.90;;;8.17;;
14121;SDS011;7139;48.114;11.442;2023-09-30T12:13:10;11.67;;;7.40;;
14121;SDS011;7139;48.114;11.442;2023-09-30T12:15:37;13.37;;;8.77;;
14121;SDS011;7139;48.114;11.442;2023-09-30T12:18:04;15.70;;;9.00;;
14121;SDS011;7139;48.114;11.442;2023-09-30T12:20:33;12.13;;;8.00;;
14121;SDS011;7139;48.114;11.442;2023-09-30T12:23:00;13.70;;;9.37;;
14121;SDS011;7139;48.114;11.442;2023-09-30T12:25:26;13.30;;;7.83;;
14121;SDS011;7139;48.114;11.442;2023-09-30T12:27:54;13.80;;;8.93;;
14121;SDS011;7139;48.114;11.442;2023-09-30T12:30:21;14.70;;;8.97;;
14121;SDS011;7139;48.114;11.442;2023-09-30T12:32:48;14.77;;;9.30;;
14121;SDS011;7139;48.114;11.442;2023-09-30T12:35:14;13.70;;;8.60;;
14121;SDS011;7139;48.114;11.442;2023-09-30T12:37:43;14.03;;;8.47;;
14121;SDS011;7139;48.114;11.442;2023-09-30T12:40:10;14.37;;;8.57;;
14121;SDS011;7139;48.114;11.442;2023-09-30T12:42:41;12.93;;;7.93;;
14121;SDS011;7139;48.114;11.442;2023-09-30T12:45:08;12.23;;;7.93;;
14121;SDS011;7139;48.114;11.442;2023-09-30T12:47:36;14.50;;;8.80;;
14121;SDS011;7139;48.114;11.442;2023-09-30T12:50:04;14.37;;;8.67;;
14121;SDS011;7139;48.114;11.442;2023-09-30T12:52:33;16.47;;;8.33;;
14121;SDS011;7139;48.114;11.442;2023-09-30T12:55:02;15.03;;;8.90;;
14121;SDS011;7139;48.114;11.442;2023-09-30T12:57:29;14.13;;;8.10;;
14121;SDS011;7139;48.114;11.442;2023-09-30T12:59:56;14.60;;;8.97;;
14121;SDS011;7139;48.114;11.442;2023-09-30T13:02:23;14.83;;;8.87;;
14121;SDS011;7139;48.114;11.442;2023-09-30T13:04:50;15.97;;;9.57;;
14121;SDS011;7139;48.114;11.442;2023-09-30T13:07:16;14.03;;;8.60;;
14121;SDS011;7139;48.114;11.442;2023-09-30T13:09:43;15.07;;;9.23;;
14121;SDS011;7139;48.114;11.442;2023-09-30T13:12:11;13.10;;;8.50;;
14121;SDS011;7139;48.114;11.442;2023-09-30T13:14:38;15.63;;;8.50;;
14121;SDS011;7139;48.114;11.442;2023-09-30T13:17:05;12.60;;;8.50;;
14121;SDS011;7139;48.114;11.442;2023-09-30T13:19:32;14.63;;;7.90;;
14121;SDS011;7139;48.114;11.442;2023-09-30T13:21:59;13.50;;;8.27;;
14121;SDS011;7139;48.114;11.442;2023-09-30T13:24:26;13.97;;;8.13;;
14121;SDS011;7139;48.114;11.442;2023-09-30T13:26:53;14.63;;;8.80;;
14121;SDS011;7139;48.114;11.442;2023-09-30T13:29:21;14.33;;;8.27;;
14121;SDS011;7139;48.114;11.442;2023-09-30T13:31:47;13.03;;;7.97;;
14121;SDS011;7139;48.114;11.442;2023-09-30T13:34:15;13.80;;;8.67;;
14121;SDS011;7139;48.114;11.442;2023-09-30T13:36:43;12.50;;;8.40;;
14121;SDS011;7139;48.114;11.442;2023-09-30T13:39:09;13.27;;;7.77;;
14121;SDS011;7139;48.114;11.442;2023-09-30T13:41:38;13.67;;;8.17;;
14121;SDS011;7139;48.114;11.442;2023-09-30T13:44:05;12.70;;;8.23;;
14121;SDS011;7139;48.114;11.442;2023-09-30T13:46:34;12.47;;;8.00;;
14121;SDS011;7139;48.114;11.442;2023-09-30T13:49:01;14.30;;;8.60;;
14121;SDS011;7139;48.114;11.442;2023-09-30T13:51:28;13.93;;;8.30;;
14121;SDS011;7139;48.114;11.442;2023-09-30T13:53:55;12.77;;;7.37;;
14121;SDS011;7139;48.114;11.442;2023-09-30T13:56:22;13.13;;;8.27;;
14121;SDS011;7139;48.114;11.442;2023-09-30T13:58:49;15.97;;;8.73;;
14121;SDS011;7139;48.114;11.442;2023-09-30T14:01:16;13.83;;;8.20;;
14121;SDS011;7139;48.114;11.442;2023-09-30T14:03:46;16.10;;;8.80;;
14121;SDS011;7139;48.114;11.442;2023-09-30T14:06:13;13.47;;;7.90;;
14121;SDS011;7139;48.114;11.442;2023-09-30T14:08:40;13.50;;;8.50;;
14121;SDS011;7139;48.114;11.442;2023-09-30T14:11:08;13.93;;;8.10;;
14121;SDS011;7139;48.114;11.442;2023-09-30T14:13:36;13.80;;;7.87;;
14121;SDS011;7139;48.114;11.442;2023-09-30T14:16:04;12.53;;;7.80;;
14121;SDS011;7139;48.114;11.442;2023-09-30T14:18:31;13.53;;;8.10;;
14121;SDS011;7139;48.114;11.442;2023-09-30T14:20:59;12.07;;;7.70;;
14121;SDS011;7139;48.114;11.442;2023-09-30T14:23:26;13.30;;;7.73;;
14121;SDS011;7139;48.114;11.442;2023-09-30T14:25:53;14.63;;;8.67;;
14121;SDS011;7139;48.114;11.442;2023-09-30T14:28:20;14.47;;;7.93;;
14121;SDS011;7139;48.114;11.442;2023-09-30T14:30:47;12.27;;;7.27;;
14121;SDS011;7139;48.114;11.442;2023-09-30T14:33:15;13.27;;;7.67;;
14121;SDS011;7139;48.114;11.442;2023-09-30T14:35:42;13.93;;;7.33;;
14121;SDS011;7139;48.114;11.442;2023-09-30T14:38:11;10.80;;;7.60;;
14121;SDS011;7139;48.114;11.442;2023-09-30T14:40:38;11.50;;;7.17;;